sensor_id;sensor_type;location;lat;lon;timestamp;P1;durP1;ratioP1;P2;durP2;ratioP2
67715;SDS011;54508;43.238;25.306;2022-10-16T00:01:13;8.43;;;5.97;;
67715;SDS011;54508;43.238;25.306;2022-10-16T00:03:40;8.65;;;6.10;;
67715;SDS011;54508;43.238;25.306;2022-10-16T00:06:06;7.95;;;6.22;;
67715;SDS011;54508;43.238;25.306;2022-10-16T00:08:32;8.27;;;6.25;;
67715;SDS011;54508;43.238;25.306;2022-10-16T00:11:18;10.17;;;5.80;;
67715;SDS011;54508;43.238;25.306;2022-10-16T00:13:44;8.02;;;5.90;;
67715;SDS011;54508;43.238;25.306;2022-10-16T00:16:10;9.10;;;6.47;;
67715;SDS011;54508;43.238;25.306;2022-10-16T00:18:37;7.75;;;6.05;;
67715;SDS011;54508;43.238;25.306;2022-10-16T00:21:04;8.37;;;5.77;;
67715;SDS011;54508;43.238;25.306;2022-10-16T00:23:34;9.85;;;6.40;;
67715;SDS011;54508;43.238;25.306;2022-10-16T00:26:01;10.77;;;6.03;;
67715;SDS011;54508;43.238;25.306;2022-10-16T00:28:29;8.27;;;6.40;;
67715;SDS011;54508;43.238;25.306;2022-10-16T00:30:55;7.30;;;5.63;;
67715;SDS011;54508;43.238;25.306;2022-10-16T00:33:20;7.45;;;5.57;;
67715;SDS011;54508;43.238;25.306;2022-10-16T00:35:46;8.27;;;5.80;;
67715;SDS011;54508;43.238;25.306;2022-10-16T00:38:12;8.77;;;6.18;;
67715;SDS011;54508;43.238;25.306;2022-10-16T00:40:38;9.63;;;6.40;;
67715;SDS011;54508;43.238;25.306;2022-10-16T00:43:09;9.40;;;5.63;;
67715;SDS011;54508;43.238;25.306;2022-10-16T00:45:38;8.38;;;5.53;;
67715;SDS011;54508;43.238;25.306;2022-10-16T00:48:03;8.60;;;5.90;;
67715;SDS011;54508;43.238;25.306;2022-10-16T00:52:55;8.48;;;6.07;;
67715;SDS011;54508;43.238;25.306;2022-10-16T00:55:21;6.63;;;5.78;;
67715;SDS011;54508;43.238;25.306;2022-10-16T00:57:47;8.07;;;5.90;;
67715;SDS011;54508;43.238;25.306;2022-10-16T01:00:14;6.70;;;5.50;;
67715;SDS011;54508;43.238;25.306;2022-10-16T01:02:42;8.88;;;5.57;;
67715;SDS011;54508;43.238;25.306;2022-10-16T01:05:08;7.43;;;5.60;;
67715;SDS011;54508;43.238;25.306;2022-10-16T01:15:35;8.23;;;5.25;;
67715;SDS011;54508;43.238;25.306;2022-10-16T01:20:32;6.87;;;5.60;;
67715;SDS011;54508;43.238;25.306;2022-10-16T01:31:14;7.32;;;6.00;;
67715;SDS011;54508;43.238;25.306;2022-10-16T01:33:44;7.53;;;5.43;;
67715;SDS011;54508;43.238;25.306;2022-10-16T01:36:25;7.82;;;5.28;;
67715;SDS011;54508;43.238;25.306;2022-10-16T01:38:54;7.25;;;5.93;;
67715;SDS011;54508;43.238;25.306;2022-10-16T01:41:26;6.65;;;5.13;;
67715;SDS011;54508;43.238;25.306;2022-10-16T01:46:36;7.80;;;5.30;;
67715;SDS011;54508;43.238;25.306;2022-10-16T01:49:03;8.32;;;5.35;;
67715;SDS011;54508;43.238;25.306;2022-10-16T01:51:29;7.47;;;5.30;;
67715;SDS011;54508;43.238;25.306;2022-10-16T01:53:56;6.27;;;4.60;;
67715;SDS011;54508;43.238;25.306;2022-10-16T01:56:23;6.15;;;4.93;;
67715;SDS011;54508;43.238;25.306;2022-10-16T01:59:33;7.60;;;5.57;;
67715;SDS011;54508;43.238;25.306;2022-10-16T02:01:40;6.82;;;5.07;;
67715;SDS011;54508;43.238;25.306;2022-10-16T02:04:14;5.80;;;4.90;;
67715;SDS011;54508;43.238;25.306;2022-10-16T02:07:02;6.07;;;4.87;;
67715;SDS011;54508;43.238;25.306;2022-10-16T02:09:27;6.85;;;4.93;;
67715;SDS011;54508;43.238;25.306;2022-10-16T02:11:55;7.13;;;5.05;;
67715;SDS011;54508;43.238;25.306;2022-10-16T02:14:22;7.17;;;4.97;;
67715;SDS011;54508;43.238;25.306;2022-10-16T02:16:50;5.75;;;4.78;;
67715;SDS011;54508;43.238;25.306;2022-10-16T02:19:16;6.75;;;4.97;;
67715;SDS011;54508;43.238;25.306;2022-10-16T02:21:54;7.55;;;4.80;;
67715;SDS011;54508;43.238;25.306;2022-10-16T02:27:13;5.80;;;4.70;;
67715;SDS011;54508;43.238;25.306;2022-10-16T02:29:49;6.35;;;4.43;;
67715;SDS011;54508;43.238;25.306;2022-10-16T02:32:43;7.80;;;5.60;;
67715;SDS011;54508;43.238;25.306;2022-10-16T02:35:10;7.30;;;4.90;;
67715;SDS011;54508;43.238;25.306;2022-10-16T02:37:36;7.20;;;4.43;;
67715;SDS011;54508;43.238;25.306;2022-10-16T02:40:02;5.75;;;4.38;;
67715;SDS011;54508;43.238;25.306;2022-10-16T02:42:34;6.93;;;4.70;;
67715;SDS011;54508;43.238;25.306;2022-10-16T02:45:00;7.53;;;5.30;;
67715;SDS011;54508;43.238;25.306;2022-10-16T02:47:26;6.80;;;4.93;;
67715;SDS011;54508;43.238;25.306;2022-10-16T02:49:51;5.30;;;4.30;;
67715;SDS011;54508;43.238;25.306;2022-10-16T02:52:17;6.55;;;4.68;;
67715;SDS011;54508;43.238;25.306;2022-10-16T02:54:42;6.90;;;4.63;;
67715;SDS011;54508;43.238;25.306;2022-10-16T02:57:08;6.17;;;4.67;;
67715;SDS011;54508;43.238;25.306;2022-10-16T02:59:33;8.10;;;4.80;;
67715;SDS011;54508;43.238;25.306;2022-10-16T03:01:59;6.65;;;4.38;;
67715;SDS011;54508;43.238;25.306;2022-10-16T03:04:24;4.97;;;4.10;;
67715;SDS011;54508;43.238;25.306;2022-10-16T03:06:50;8.00;;;4.63;;
67715;SDS011;54508;43.238;25.306;2022-10-16T03:09:15;8.27;;;4.70;;
67715;SDS011;54508;43.238;25.306;2022-10-16T03:11:41;6.03;;;4.72;;
67715;SDS011;54508;43.238;25.306;2022-10-16T03:14:06;6.40;;;4.77;;
67715;SDS011;54508;43.238;25.306;2022-10-16T03:16:32;5.55;;;4.18;;
67715;SDS011;54508;43.238;25.306;2022-10-16T03:18:57;6.05;;;4.35;;
67715;SDS011;54508;43.238;25.306;2022-10-16T03:21:23;6.93;;;5.13;;
67715;SDS011;54508;43.238;25.306;2022-10-16T03:23:48;6.63;;;4.53;;
67715;SDS011;54508;43.238;25.306;2022-10-16T03:26:14;6.68;;;4.57;;
67715;SDS011;54508;43.238;25.306;2022-10-16T03:28:39;7.13;;;4.87;;
67715;SDS011;54508;43.238;25.306;2022-10-16T03:31:05;5.60;;;4.20;;
67715;SDS011;54508;43.238;25.306;2022-10-16T03:33:30;6.90;;;4.37;;
67715;SDS011;54508;43.238;25.306;2022-10-16T03:35:56;7.07;;;4.68;;
67715;SDS011;54508;43.238;25.306;2022-10-16T03:38:21;5.23;;;4.40;;
67715;SDS011;54508;43.238;25.306;2022-10-16T03:40:47;6.67;;;4.40;;
67715;SDS011;54508;43.238;25.306;2022-10-16T03:43:12;9.97;;;5.13;;
67715;SDS011;54508;43.238;25.306;2022-10-16T03:45:38;7.30;;;4.70;;
67715;SDS011;54508;43.238;25.306;2022-10-16T03:48:03;6.40;;;4.30;;
67715;SDS011;54508;43.238;25.306;2022-10-16T03:50:29;5.37;;;4.20;;
67715;SDS011;54508;43.238;25.306;2022-10-16T03:52:54;7.72;;;4.50;;
67715;SDS011;54508;43.238;25.306;2022-10-16T03:55:20;5.13;;;4.63;;
67715;SDS011;54508;43.238;25.306;2022-10-16T03:57:45;9.00;;;4.70;;
67715;SDS011;54508;43.238;25.306;2022-10-16T04:00:11;5.90;;;4.57;;
67715;SDS011;54508;43.238;25.306;2022-10-16T04:02:37;6.18;;;4.80;;
67715;SDS011;54508;43.238;25.306;2022-10-16T04:05:03;5.40;;;4.57;;
67715;SDS011;54508;43.238;25.306;2022-10-16T04:07:28;5.53;;;4.47;;
67715;SDS011;54508;43.238;25.306;2022-10-16T04:09:54;6.93;;;5.07;;
67715;SDS011;54508;43.238;25.306;2022-10-16T04:12:19;7.47;;;4.50;;
67715;SDS011;54508;43.238;25.306;2022-10-16T04:14:45;7.13;;;4.17;;
67715;SDS011;54508;43.238;25.306;2022-10-16T04:17:10;5.90;;;5.00;;
67715;SDS011;54508;43.238;25.306;2022-10-16T04:19:36;5.03;;;4.10;;
67715;SDS011;54508;43.238;25.306;2022-10-16T04:22:02;6.63;;;4.38;;
67715;SDS011;54508;43.238;25.306;2022-10-16T04:24:27;6.40;;;4.20;;
67715;SDS011;54508;43.238;25.306;2022-10-16T04:26:53;5.47;;;4.47;;
67715;SDS011;54508;43.238;25.306;2022-10-16T04:29:18;6.23;;;4.97;;
67715;SDS011;54508;43.238;25.306;2022-10-16T04:31:44;5.73;;;4.93;;
67715;SDS011;54508;43.238;25.306;2022-10-16T04:34:09;7.20;;;4.50;;
67715;SDS011;54508;43.238;25.306;2022-10-16T04:36:34;7.15;;;4.57;;
67715;SDS011;54508;43.238;25.306;2022-10-16T04:39:00;8.07;;;4.43;;
67715;SDS011;54508;43.238;25.306;2022-10-16T04:41:25;6.30;;;4.60;;
67715;SDS011;54508;43.238;25.306;2022-10-16T04:43:51;5.63;;;4.30;;
67715;SDS011;54508;43.238;25.306;2022-10-16T04:46:16;8.87;;;5.10;;
67715;SDS011;54508;43.238;25.306;2022-10-16T04:48:42;7.00;;;4.50;;
67715;SDS011;54508;43.238;25.306;2022-10-16T04:51:07;5.10;;;4.53;;
67715;SDS011;54508;43.238;25.306;2022-10-16T04:53:33;8.70;;;4.67;;
67715;SDS011;54508;43.238;25.306;2022-10-16T04:55:59;7.22;;;4.55;;
67715;SDS011;54508;43.238;25.306;2022-10-16T04:58:24;6.00;;;4.50;;
67715;SDS011;54508;43.238;25.306;2022-10-16T05:00:50;5.80;;;4.25;;
67715;SDS011;54508;43.238;25.306;2022-10-16T05:03:15;6.57;;;4.72;;
67715;SDS011;54508;43.238;25.306;2022-10-16T05:05:44;6.73;;;4.77;;
67715;SDS011;54508;43.238;25.306;2022-10-16T05:08:11;5.57;;;4.72;;
67715;SDS011;54508;43.238;25.306;2022-10-16T05:10:37;6.60;;;4.47;;
67715;SDS011;54508;43.238;25.306;2022-10-16T05:13:02;6.37;;;4.67;;
67715;SDS011;54508;43.238;25.306;2022-10-16T05:15:28;6.17;;;4.07;;
67715;SDS011;54508;43.238;25.306;2022-10-16T05:17:54;5.35;;;4.85;;
67715;SDS011;54508;43.238;25.306;2022-10-16T05:20:20;7.80;;;4.35;;
67715;SDS011;54508;43.238;25.306;2022-10-16T05:22:46;5.43;;;4.50;;
67715;SDS011;54508;43.238;25.306;2022-10-16T05:25:11;6.77;;;4.80;;
67715;SDS011;54508;43.238;25.306;2022-10-16T05:27:37;6.03;;;4.82;;
67715;SDS011;54508;43.238;25.306;2022-10-16T05:30:02;5.45;;;4.65;;
67715;SDS011;54508;43.238;25.306;2022-10-16T05:32:28;10.13;;;4.57;;
67715;SDS011;54508;43.238;25.306;2022-10-16T05:34:54;6.85;;;4.95;;
67715;SDS011;54508;43.238;25.306;2022-10-16T05:37:19;10.68;;;5.45;;
67715;SDS011;54508;43.238;25.306;2022-10-16T05:39:44;10.20;;;4.47;;
67715;SDS011;54508;43.238;25.306;2022-10-16T05:42:10;11.53;;;5.20;;
67715;SDS011;54508;43.238;25.306;2022-10-16T05:44:35;7.63;;;4.90;;
67715;SDS011;54508;43.238;25.306;2022-10-16T05:47:01;7.70;;;4.45;;
67715;SDS011;54508;43.238;25.306;2022-10-16T05:49:26;11.40;;;5.13;;
67715;SDS011;54508;43.238;25.306;2022-10-16T05:51:52;7.70;;;4.40;;
67715;SDS011;54508;43.238;25.306;2022-10-16T05:54:17;13.23;;;4.97;;
67715;SDS011;54508;43.238;25.306;2022-10-16T05:56:43;6.28;;;4.93;;
67715;SDS011;54508;43.238;25.306;2022-10-16T05:59:09;8.10;;;5.43;;
67715;SDS011;54508;43.238;25.306;2022-10-16T06:01:34;11.00;;;4.90;;
67715;SDS011;54508;43.238;25.306;2022-10-16T06:04:00;8.90;;;5.20;;
67715;SDS011;54508;43.238;25.306;2022-10-16T06:06:26;9.70;;;4.90;;
67715;SDS011;54508;43.238;25.306;2022-10-16T06:08:53;6.72;;;4.70;;
67715;SDS011;54508;43.238;25.306;2022-10-16T06:11:21;9.05;;;5.22;;
67715;SDS011;54508;43.238;25.306;2022-10-16T06:13:52;6.45;;;4.90;;
67715;SDS011;54508;43.238;25.306;2022-10-16T06:16:19;7.35;;;5.03;;
67715;SDS011;54508;43.238;25.306;2022-10-16T06:18:45;10.10;;;6.28;;
67715;SDS011;54508;43.238;25.306;2022-10-16T06:21:14;10.90;;;6.40;;
67715;SDS011;54508;43.238;25.306;2022-10-16T06:23:42;9.65;;;6.60;;
67715;SDS011;54508;43.238;25.306;2022-10-16T06:26:18;8.57;;;7.03;;
67715;SDS011;54508;43.238;25.306;2022-10-16T06:28:44;10.32;;;6.28;;
67715;SDS011;54508;43.238;25.306;2022-10-16T06:31:11;10.43;;;6.70;;
67715;SDS011;54508;43.238;25.306;2022-10-16T06:33:37;10.38;;;6.90;;
67715;SDS011;54508;43.238;25.306;2022-10-16T06:36:21;10.80;;;6.65;;
67715;SDS011;54508;43.238;25.306;2022-10-16T06:38:47;8.35;;;6.10;;
67715;SDS011;54508;43.238;25.306;2022-10-16T06:41:14;9.50;;;6.60;;
67715;SDS011;54508;43.238;25.306;2022-10-16T06:43:41;8.23;;;6.45;;
67715;SDS011;54508;43.238;25.306;2022-10-16T06:46:08;9.52;;;6.57;;
67715;SDS011;54508;43.238;25.306;2022-10-16T06:48:35;8.23;;;6.53;;
67715;SDS011;54508;43.238;25.306;2022-10-16T06:51:02;10.32;;;6.22;;
67715;SDS011;54508;43.238;25.306;2022-10-16T06:53:33;10.82;;;6.57;;
67715;SDS011;54508;43.238;25.306;2022-10-16T06:56:12;10.00;;;6.57;;
67715;SDS011;54508;43.238;25.306;2022-10-16T06:58:40;10.40;;;6.07;;
67715;SDS011;54508;43.238;25.306;2022-10-16T07:01:06;7.57;;;6.10;;
67715;SDS011;54508;43.238;25.306;2022-10-16T07:03:33;8.25;;;6.03;;
67715;SDS011;54508;43.238;25.306;2022-10-16T07:06:01;10.75;;;6.45;;
67715;SDS011;54508;43.238;25.306;2022-10-16T07:08:30;8.07;;;6.38;;
67715;SDS011;54508;43.238;25.306;2022-10-16T07:11:00;8.43;;;6.47;;
67715;SDS011;54508;43.238;25.306;2022-10-16T07:13:26;7.37;;;5.97;;
67715;SDS011;54508;43.238;25.306;2022-10-16T07:15:52;7.78;;;6.35;;
67715;SDS011;54508;43.238;25.306;2022-10-16T07:18:17;9.10;;;5.83;;
67715;SDS011;54508;43.238;25.306;2022-10-16T07:20:43;6.97;;;6.15;;
67715;SDS011;54508;43.238;25.306;2022-10-16T07:23:08;7.83;;;6.10;;
67715;SDS011;54508;43.238;25.306;2022-10-16T07:25:34;8.20;;;5.90;;
67715;SDS011;54508;43.238;25.306;2022-10-16T07:27:59;8.73;;;6.23;;
67715;SDS011;54508;43.238;25.306;2022-10-16T07:30:25;8.32;;;6.05;;
67715;SDS011;54508;43.238;25.306;2022-10-16T07:32:50;8.25;;;6.05;;
67715;SDS011;54508;43.238;25.306;2022-10-16T07:35:16;8.37;;;6.17;;
67715;SDS011;54508;43.238;25.306;2022-10-16T07:37:44;8.70;;;6.63;;
67715;SDS011;54508;43.238;25.306;2022-10-16T07:40:10;7.68;;;6.05;;
67715;SDS011;54508;43.238;25.306;2022-10-16T07:42:36;6.43;;;5.80;;
67715;SDS011;54508;43.238;25.306;2022-10-16T07:45:01;6.93;;;5.70;;
67715;SDS011;54508;43.238;25.306;2022-10-16T07:47:27;7.23;;;5.80;;
67715;SDS011;54508;43.238;25.306;2022-10-16T07:49:52;6.57;;;5.87;;
67715;SDS011;54508;43.238;25.306;2022-10-16T07:52:18;8.25;;;5.70;;
67715;SDS011;54508;43.238;25.306;2022-10-16T07:54:44;6.73;;;6.00;;
67715;SDS011;54508;43.238;25.306;2022-10-16T07:57:09;8.30;;;5.73;;
67715;SDS011;54508;43.238;25.306;2022-10-16T07:59:34;6.00;;;5.40;;
67715;SDS011;54508;43.238;25.306;2022-10-16T08:02:00;7.78;;;5.65;;
67715;SDS011;54508;43.238;25.306;2022-10-16T08:04:25;6.90;;;5.47;;
67715;SDS011;54508;43.238;25.306;2022-10-16T08:06:51;5.90;;;5.30;;
67715;SDS011;54508;43.238;25.306;2022-10-16T08:09:16;6.50;;;5.90;;
67715;SDS011;54508;43.238;25.306;2022-10-16T08:11:42;6.78;;;5.55;;
67715;SDS011;54508;43.238;25.306;2022-10-16T08:14:07;7.47;;;5.60;;
67715;SDS011;54508;43.238;25.306;2022-10-16T08:16:33;8.48;;;5.90;;
67715;SDS011;54508;43.238;25.306;2022-10-16T08:18:59;6.03;;;5.30;;
67715;SDS011;54508;43.238;25.306;2022-10-16T08:21:24;6.07;;;5.43;;
67715;SDS011;54508;43.238;25.306;2022-10-16T08:23:50;6.00;;;5.40;;
67715;SDS011;54508;43.238;25.306;2022-10-16T08:26:16;5.93;;;5.32;;
67715;SDS011;54508;43.238;25.306;2022-10-16T08:28:41;6.85;;;5.00;;
67715;SDS011;54508;43.238;25.306;2022-10-16T08:31:08;7.07;;;4.97;;
67715;SDS011;54508;43.238;25.306;2022-10-16T08:33:34;6.97;;;5.60;;
67715;SDS011;54508;43.238;25.306;2022-10-16T08:36:00;7.17;;;5.50;;
67715;SDS011;54508;43.238;25.306;2022-10-16T08:38:26;7.53;;;5.57;;
67715;SDS011;54508;43.238;25.306;2022-10-16T08:40:52;5.83;;;5.27;;
67715;SDS011;54508;43.238;25.306;2022-10-16T08:46:07;6.97;;;5.18;;
67715;SDS011;54508;43.238;25.306;2022-10-16T08:48:48;6.70;;;5.50;;
67715;SDS011;54508;43.238;25.306;2022-10-16T08:51:18;6.40;;;4.77;;
67715;SDS011;54508;43.238;25.306;2022-10-16T08:53:50;6.63;;;5.57;;
67715;SDS011;54508;43.238;25.306;2022-10-16T08:56:18;6.85;;;5.05;;
67715;SDS011;54508;43.238;25.306;2022-10-16T08:58:44;6.63;;;5.40;;
67715;SDS011;54508;43.238;25.306;2022-10-16T09:01:14;8.35;;;5.05;;
67715;SDS011;54508;43.238;25.306;2022-10-16T09:09:05;6.88;;;5.35;;
67715;SDS011;54508;43.238;25.306;2022-10-16T09:11:55;8.00;;;5.40;;
67715;SDS011;54508;43.238;25.306;2022-10-16T09:25:30;5.57;;;4.95;;
67715;SDS011;54508;43.238;25.306;2022-10-16T09:27:56;5.25;;;4.65;;
67715;SDS011;54508;43.238;25.306;2022-10-16T09:30:28;7.70;;;5.47;;
67715;SDS011;54508;43.238;25.306;2022-10-16T09:32:54;6.10;;;5.28;;
67715;SDS011;54508;43.238;25.306;2022-10-16T09:35:25;5.73;;;4.57;;
67715;SDS011;54508;43.238;25.306;2022-10-16T09:37:56;5.85;;;4.78;;
67715;SDS011;54508;43.238;25.306;2022-10-16T09:40:40;5.90;;;4.93;;
67715;SDS011;54508;43.238;25.306;2022-10-16T09:43:19;8.13;;;5.40;;
67715;SDS011;54508;43.238;25.306;2022-10-16T09:46:00;7.03;;;5.20;;
67715;SDS011;54508;43.238;25.306;2022-10-16T09:48:37;5.68;;;5.05;;
67715;SDS011;54508;43.238;25.306;2022-10-16T09:56:34;5.82;;;4.90;;
67715;SDS011;54508;43.238;25.306;2022-10-16T09:59:14;7.05;;;5.07;;
67715;SDS011;54508;43.238;25.306;2022-10-16T10:04:08;4.72;;;4.22;;
67715;SDS011;54508;43.238;25.306;2022-10-16T10:06:46;5.25;;;4.75;;
67715;SDS011;54508;43.238;25.306;2022-10-16T10:11:52;6.40;;;4.70;;
67715;SDS011;54508;43.238;25.306;2022-10-16T10:19:41;5.80;;;4.78;;
67715;SDS011;54508;43.238;25.306;2022-10-16T10:22:15;5.65;;;4.55;;
67715;SDS011;54508;43.238;25.306;2022-10-16T10:24:41;8.00;;;4.80;;
67715;SDS011;54508;43.238;25.306;2022-10-16T10:27:10;6.00;;;4.10;;
67715;SDS011;54508;43.238;25.306;2022-10-16T10:29:48;5.20;;;4.47;;
67715;SDS011;54508;43.238;25.306;2022-10-16T10:32:42;6.05;;;4.47;;
67715;SDS011;54508;43.238;25.306;2022-10-16T10:35:27;6.22;;;4.53;;
67715;SDS011;54508;43.238;25.306;2022-10-16T10:38:13;6.40;;;4.57;;
67715;SDS011;54508;43.238;25.306;2022-10-16T10:45:52;5.72;;;4.30;;
67715;SDS011;54508;43.238;25.306;2022-10-16T10:51:04;6.43;;;4.40;;
67715;SDS011;54508;43.238;25.306;2022-10-16T11:04:26;6.63;;;4.30;;
67715;SDS011;54508;43.238;25.306;2022-10-16T11:07:07;7.60;;;4.57;;
67715;SDS011;54508;43.238;25.306;2022-10-16T11:09:49;6.75;;;4.55;;
67715;SDS011;54508;43.238;25.306;2022-10-16T11:12:21;6.10;;;4.28;;
67715;SDS011;54508;43.238;25.306;2022-10-16T11:15:05;5.93;;;4.35;;
67715;SDS011;54508;43.238;25.306;2022-10-16T11:17:58;5.28;;;4.53;;
67715;SDS011;54508;43.238;25.306;2022-10-16T11:20:33;6.28;;;4.00;;
67715;SDS011;54508;43.238;25.306;2022-10-16T11:23:46;5.07;;;4.38;;
67715;SDS011;54508;43.238;25.306;2022-10-16T11:25:53;5.35;;;4.30;;
67715;SDS011;54508;43.238;25.306;2022-10-16T11:28:25;6.93;;;4.82;;
67715;SDS011;54508;43.238;25.306;2022-10-16T11:33:45;6.00;;;4.63;;
67715;SDS011;54508;43.238;25.306;2022-10-16T11:47:07;5.05;;;4.20;;
67715;SDS011;54508;43.238;25.306;2022-10-16T11:49:37;6.18;;;4.25;;
67715;SDS011;54508;43.238;25.306;2022-10-16T11:55:01;5.97;;;4.47;;
67715;SDS011;54508;43.238;25.306;2022-10-16T11:57:34;4.57;;;4.15;;
67715;SDS011;54508;43.238;25.306;2022-10-16T12:00:31;8.43;;;4.22;;
67715;SDS011;54508;43.238;25.306;2022-10-16T12:03:11;4.95;;;3.95;;
67715;SDS011;54508;43.238;25.306;2022-10-16T12:08:33;5.07;;;4.40;;
67715;SDS011;54508;43.238;25.306;2022-10-16T12:11:06;5.80;;;4.05;;
67715;SDS011;54508;43.238;25.306;2022-10-16T12:17:00;4.38;;;3.63;;
67715;SDS011;54508;43.238;25.306;2022-10-16T12:19:28;5.63;;;4.85;;
67715;SDS011;54508;43.238;25.306;2022-10-16T12:21:58;6.60;;;4.22;;
67715;SDS011;54508;43.238;25.306;2022-10-16T12:27:01;4.97;;;4.10;;
67715;SDS011;54508;43.238;25.306;2022-10-16T12:31:58;5.30;;;4.45;;
67715;SDS011;54508;43.238;25.306;2022-10-16T12:34:29;5.70;;;3.90;;
67715;SDS011;54508;43.238;25.306;2022-10-16T12:37:07;4.25;;;3.58;;
67715;SDS011;54508;43.238;25.306;2022-10-16T12:39:38;5.30;;;3.90;;
67715;SDS011;54508;43.238;25.306;2022-10-16T12:42:04;5.53;;;3.92;;
67715;SDS011;54508;43.238;25.306;2022-10-16T12:44:43;6.47;;;3.95;;
67715;SDS011;54508;43.238;25.306;2022-10-16T12:47:18;6.28;;;3.92;;
67715;SDS011;54508;43.238;25.306;2022-10-16T12:49:56;5.55;;;3.90;;
67715;SDS011;54508;43.238;25.306;2022-10-16T12:52:43;5.00;;;4.13;;
67715;SDS011;54508;43.238;25.306;2022-10-16T12:55:16;4.57;;;3.80;;
67715;SDS011;54508;43.238;25.306;2022-10-16T13:00:13;4.63;;;3.80;;
67715;SDS011;54508;43.238;25.306;2022-10-16T13:02:56;4.68;;;3.80;;
67715;SDS011;54508;43.238;25.306;2022-10-16T13:10:58;5.15;;;4.00;;
67715;SDS011;54508;43.238;25.306;2022-10-16T13:16:25;6.25;;;3.97;;
67715;SDS011;54508;43.238;25.306;2022-10-16T13:28:05;4.68;;;3.70;;
67715;SDS011;54508;43.238;25.306;2022-10-16T13:30:10;5.53;;;3.80;;
67715;SDS011;54508;43.238;25.306;2022-10-16T13:32:43;4.60;;;3.70;;
67715;SDS011;54508;43.238;25.306;2022-10-16T13:35:23;5.38;;;3.40;;
67715;SDS011;54508;43.238;25.306;2022-10-16T13:37:50;4.28;;;3.65;;
67715;SDS011;54508;43.238;25.306;2022-10-16T13:40:20;6.38;;;3.70;;
67715;SDS011;54508;43.238;25.306;2022-10-16T13:42:47;4.53;;;3.63;;
67715;SDS011;54508;43.238;25.306;2022-10-16T13:45:17;5.47;;;3.80;;
67715;SDS011;54508;43.238;25.306;2022-10-16T13:47:46;6.75;;;4.05;;
67715;SDS011;54508;43.238;25.306;2022-10-16T13:50:13;4.70;;;3.80;;
67715;SDS011;54508;43.238;25.306;2022-10-16T13:52:42;4.97;;;3.50;;
67715;SDS011;54508;43.238;25.306;2022-10-16T13:57:40;5.45;;;3.80;;
67715;SDS011;54508;43.238;25.306;2022-10-16T14:02:57;4.90;;;3.70;;
67715;SDS011;54508;43.238;25.306;2022-10-16T14:05:26;4.23;;;3.63;;
67715;SDS011;54508;43.238;25.306;2022-10-16T14:07:51;5.18;;;3.38;;
67715;SDS011;54508;43.238;25.306;2022-10-16T14:10:20;4.80;;;3.67;;
67715;SDS011;54508;43.238;25.306;2022-10-16T14:12:55;5.03;;;3.75;;
67715;SDS011;54508;43.238;25.306;2022-10-16T14:15:25;4.93;;;4.00;;
67715;SDS011;54508;43.238;25.306;2022-10-16T14:17:51;6.13;;;3.63;;
67715;SDS011;54508;43.238;25.306;2022-10-16T14:20:17;5.18;;;3.17;;
67715;SDS011;54508;43.238;25.306;2022-10-16T14:22:43;4.78;;;3.55;;
67715;SDS011;54508;43.238;25.306;2022-10-16T14:30:34;5.70;;;3.83;;
67715;SDS011;54508;43.238;25.306;2022-10-16T14:33:02;4.40;;;4.00;;
67715;SDS011;54508;43.238;25.306;2022-10-16T14:35:30;4.63;;;3.60;;
67715;SDS011;54508;43.238;25.306;2022-10-16T14:37:56;4.47;;;3.45;;
67715;SDS011;54508;43.238;25.306;2022-10-16T14:40:24;7.10;;;3.60;;
67715;SDS011;54508;43.238;25.306;2022-10-16T14:42:51;5.72;;;3.70;;
67715;SDS011;54508;43.238;25.306;2022-10-16T14:45:24;5.13;;;3.55;;
67715;SDS011;54508;43.238;25.306;2022-10-16T14:47:56;5.03;;;3.43;;
67715;SDS011;54508;43.238;25.306;2022-10-16T14:50:23;5.35;;;3.47;;
67715;SDS011;54508;43.238;25.306;2022-10-16T14:52:48;3.67;;;3.30;;
67715;SDS011;54508;43.238;25.306;2022-10-16T14:55:14;4.60;;;3.70;;
67715;SDS011;54508;43.238;25.306;2022-10-16T14:57:40;5.35;;;4.00;;
67715;SDS011;54508;43.238;25.306;2022-10-16T15:00:10;5.18;;;3.47;;
67715;SDS011;54508;43.238;25.306;2022-10-16T15:02:38;5.75;;;3.88;;
67715;SDS011;54508;43.238;25.306;2022-10-16T15:05:11;6.50;;;3.67;;
67715;SDS011;54508;43.238;25.306;2022-10-16T15:07:48;5.05;;;3.55;;
67715;SDS011;54508;43.238;25.306;2022-10-16T15:10:14;5.93;;;3.63;;
67715;SDS011;54508;43.238;25.306;2022-10-16T15:12:41;4.70;;;3.35;;
67715;SDS011;54508;43.238;25.306;2022-10-16T15:15:26;5.10;;;3.90;;
67715;SDS011;54508;43.238;25.306;2022-10-16T15:17:59;5.03;;;3.97;;
67715;SDS011;54508;43.238;25.306;2022-10-16T15:20:27;6.80;;;3.53;;
67715;SDS011;54508;43.238;25.306;2022-10-16T15:22:55;4.95;;;3.70;;
67715;SDS011;54508;43.238;25.306;2022-10-16T15:27:56;8.18;;;4.10;;
67715;SDS011;54508;43.238;25.306;2022-10-16T15:30:22;10.33;;;4.40;;
67715;SDS011;54508;43.238;25.306;2022-10-16T15:32:48;6.17;;;4.20;;
67715;SDS011;54508;43.238;25.306;2022-10-16T15:35:13;6.87;;;4.37;;
67715;SDS011;54508;43.238;25.306;2022-10-16T15:37:38;6.20;;;4.40;;
67715;SDS011;54508;43.238;25.306;2022-10-16T15:40:04;5.57;;;4.37;;
67715;SDS011;54508;43.238;25.306;2022-10-16T15:42:30;6.32;;;4.70;;
67715;SDS011;54508;43.238;25.306;2022-10-16T15:44:56;9.30;;;4.57;;
67715;SDS011;54508;43.238;25.306;2022-10-16T15:47:21;7.07;;;4.63;;
67715;SDS011;54508;43.238;25.306;2022-10-16T15:49:46;6.60;;;5.05;;
67715;SDS011;54508;43.238;25.306;2022-10-16T15:52:12;7.63;;;4.40;;
67715;SDS011;54508;43.238;25.306;2022-10-16T15:54:37;8.97;;;4.73;;
67715;SDS011;54508;43.238;25.306;2022-10-16T15:57:03;10.13;;;4.80;;
67715;SDS011;54508;43.238;25.306;2022-10-16T15:59:28;6.95;;;4.97;;
67715;SDS011;54508;43.238;25.306;2022-10-16T16:01:55;7.13;;;4.90;;
67715;SDS011;54508;43.238;25.306;2022-10-16T16:04:20;8.00;;;5.22;;
67715;SDS011;54508;43.238;25.306;2022-10-16T16:06:45;6.03;;;4.80;;
67715;SDS011;54508;43.238;25.306;2022-10-16T16:09:11;9.70;;;5.27;;
67715;SDS011;54508;43.238;25.306;2022-10-16T16:11:38;9.10;;;5.40;;
67715;SDS011;54508;43.238;25.306;2022-10-16T16:14:07;8.50;;;4.87;;
67715;SDS011;54508;43.238;25.306;2022-10-16T16:16:36;9.32;;;5.50;;
67715;SDS011;54508;43.238;25.306;2022-10-16T16:19:05;9.23;;;5.30;;
67715;SDS011;54508;43.238;25.306;2022-10-16T16:21:32;8.50;;;5.47;;
67715;SDS011;54508;43.238;25.306;2022-10-16T16:23:58;8.43;;;5.28;;
67715;SDS011;54508;43.238;25.306;2022-10-16T16:26:24;9.18;;;5.30;;
67715;SDS011;54508;43.238;25.306;2022-10-16T16:28:57;7.90;;;5.30;;
67715;SDS011;54508;43.238;25.306;2022-10-16T16:31:26;10.30;;;5.57;;
67715;SDS011;54508;43.238;25.306;2022-10-16T16:33:53;8.30;;;5.95;;
67715;SDS011;54508;43.238;25.306;2022-10-16T16:36:19;9.23;;;5.60;;
67715;SDS011;54508;43.238;25.306;2022-10-16T16:38:45;7.32;;;5.15;;
67715;SDS011;54508;43.238;25.306;2022-10-16T16:41:14;12.68;;;6.47;;
67715;SDS011;54508;43.238;25.306;2022-10-16T16:43:43;16.58;;;7.05;;
67715;SDS011;54508;43.238;25.306;2022-10-16T16:46:09;16.50;;;8.10;;
67715;SDS011;54508;43.238;25.306;2022-10-16T16:48:34;18.37;;;7.67;;
67715;SDS011;54508;43.238;25.306;2022-10-16T16:51:06;14.75;;;7.72;;
67715;SDS011;54508;43.238;25.306;2022-10-16T16:53:34;17.98;;;7.32;;
67715;SDS011;54508;43.238;25.306;2022-10-16T16:56:00;12.57;;;6.93;;
67715;SDS011;54508;43.238;25.306;2022-10-16T16:58:27;15.02;;;7.45;;
67715;SDS011;54508;43.238;25.306;2022-10-16T17:00:53;17.52;;;7.28;;
67715;SDS011;54508;43.238;25.306;2022-10-16T17:03:18;14.60;;;7.27;;